Mason City, Iowa
Current Conditions -  °F | °C
As of 8:30 PM on Saturday 22 Nov 2014 (Local Time) from KMCW Reporting Station
Haze Haze  
Wind Chill: 38°   Ceiling: 200
Heat Index: 45°   Visibility: 0.75mi
Dew Point: 45°   Wind: 15mph
Humidity: 100%   Direction: 170°S
Pressure: 29.62"   Gusts: NA
Location:  43.15°N, 93.2°W
Report Text: KMCW 230230Z AUTO 17013KT 3/4SM BR VV002 07/07 A2962 RMK AO2 T00720072
Loading
Personal Weather Stations






























Interactive Weather Map New forecast layout! Learn more

10-Day Weather Forecast

Advertisements
Track Severe Weather on mobile